Aviation Digital Data Service (ADDS)

Output produced by METARs form (1016 UTC 07 December 2022)
found at http://www.aviationweather.gov/metar/data/
 
METAR text: KPDX 071011Z 00000KT 5SM BR BKN017 OVC045 04/03 A3022 RMK AO2 T00440028
Conditions at: KPDX (PORTLAND , OR, US) observed 1011 UTC 07 December 2022
Temperature: 4.4°C (40°F)
Dewpoint: 2.8°C (37°F) [RH = 89%]
Pressure (altimeter): 30.22 inches Hg (1023.5 mb)
Winds: calm
Visibility: 5 miles ( 8 km)
Ceiling: 1700 feet AGL
Clouds: broken clouds at 1700 feet AGL
overcast cloud deck at 4500 feet AGL
Weather: BR  (mist)

METAR text: KPDX 070953Z 00000KT 5SM BR OVC045 04/03 A3021 RMK AO2 SLP230 T00440033
Conditions at: KPDX (PORTLAND , OR, US) observed 0953 UTC 07 December 2022
Temperature: 4.4°C (40°F)
Dewpoint: 3.3°C (38°F) [RH = 93%]
Pressure (altimeter): 30.21 inches Hg (1023.1 mb)
[Sea-level pressure: 1023.0 mb]
Winds: calm
Visibility: 5 miles ( 8 km)
Ceiling: 4500 feet AGL
Clouds: overcast cloud deck at 4500 feet AGL
Weather: BR  (mist)

METAR text: KPDX 070853Z 00000KT 7SM OVC045 04/03 A3021 RMK AO2 SLP230 T00440033 58001
Conditions at: KPDX (PORTLAND , OR, US) observed 0853 UTC 07 December 2022
Temperature: 4.4°C (40°F)
Dewpoint: 3.3°C (38°F) [RH = 93%]
Pressure (altimeter): 30.21 inches Hg (1023.1 mb)
[Sea-level pressure: 1023.0 mb]
Winds: calm
Visibility: 7 miles (11 km)
Ceiling: 4500 feet AGL
Clouds: overcast cloud deck at 4500 feet AGL
Weather: no significant weather observed at this time

METAR text: KPDX 070753Z 23003KT 5SM BR OVC046 04/03 A3022 RMK AO2 SLP232 T00440033 400610022
Conditions at: KPDX (PORTLAND , OR, US) observed 0753 UTC 07 December 2022
Temperature: 4.4°C (40°F)
Dewpoint: 3.3°C (38°F) [RH = 93%]
Pressure (altimeter): 30.22 inches Hg (1023.5 mb)
[Sea-level pressure: 1023.2 mb]
Winds: from the SW (230 degrees) at 3 MPH (3 knots; 1.5 m/s)
Visibility: 5 miles ( 8 km)
Ceiling: 4600 feet AGL
Clouds: overcast cloud deck at 4600 feet AGL
Weather: BR  (mist)

METAR text: KPDX 070653Z 00000KT 5SM BR OVC048 05/03 A3022 RMK AO2 SLP232 T00500033
Conditions at: KPDX (PORTLAND , OR, US) observed 0653 UTC 07 December 2022
Temperature: 5.0°C (41°F)
Dewpoint: 3.3°C (38°F) [RH = 89%]
Pressure (altimeter): 30.22 inches Hg (1023.5 mb)
[Sea-level pressure: 1023.2 mb]
Winds: calm
Visibility: 5 miles ( 8 km)
Ceiling: 4800 feet AGL
Clouds: overcast cloud deck at 4800 feet AGL
Weather: BR  (mist)

METAR text: KPDX 070553Z 00000KT 5SM BR OVC048 05/03 A3021 RMK AO2 SLP231 T00500033 10061 20044 51005
Conditions at: KPDX (PORTLAND , OR, US) observed 0553 UTC 07 December 2022
Temperature: 5.0°C (41°F)
Dewpoint: 3.3°C (38°F) [RH = 89%]
Pressure (altimeter): 30.21 inches Hg (1023.1 mb)
[Sea-level pressure: 1023.1 mb]
Winds: calm
Visibility: 5 miles ( 8 km)
Ceiling: 4800 feet AGL
Clouds: overcast cloud deck at 4800 feet AGL
Weather: BR  (mist)

METAR text: KPDX 070453Z 28004KT 7SM OVC050 05/03 A3021 RMK AO2 SLP230 T00500028
Conditions at: KPDX (PORTLAND , OR, US) observed 0453 UTC 07 December 2022
Temperature: 5.0°C (41°F)
Dewpoint: 2.8°C (37°F) [RH = 86%]
Pressure (altimeter): 30.21 inches Hg (1023.1 mb)
[Sea-level pressure: 1023.0 mb]
Winds: from the W (280 degrees) at 5 MPH (4 knots; 2.1 m/s)
Visibility: 7 miles (11 km)
Ceiling: 5000 feet AGL
Clouds: overcast cloud deck at 5000 feet AGL
Weather: no significant weather observed at this time

METAR text: KPDX 070353Z 00000KT 7SM OVC050 06/03 A3020 RMK AO2 SLP227 T00560028
Conditions at: KPDX (PORTLAND , OR, US) observed 0353 UTC 07 December 2022
Temperature: 5.6°C (42°F)
Dewpoint: 2.8°C (37°F) [RH = 82%]
Pressure (altimeter): 30.20 inches Hg (1022.8 mb)
[Sea-level pressure: 1022.7 mb]
Winds: calm
Visibility: 7 miles (11 km)
Ceiling: 5000 feet AGL
Clouds: overcast cloud deck at 5000 feet AGL
Weather: no significant weather observed at this time

METAR text: KPDX 070253Z 00000KT 8SM FEW012 OVC050 06/03 A3020 RMK AO2 SLP226 T00560028 53005
Conditions at: KPDX (PORTLAND , OR, US) observed 0253 UTC 07 December 2022
Temperature: 5.6°C (42°F)
Dewpoint: 2.8°C (37°F) [RH = 82%]
Pressure (altimeter): 30.20 inches Hg (1022.8 mb)
[Sea-level pressure: 1022.6 mb]
Winds: calm
Visibility: 8 miles (13 km)
Ceiling: 5000 feet AGL
Clouds: few clouds at 1200 feet AGL
overcast cloud deck at 5000 feet AGL
Weather: no significant weather observed at this time

METAR text: KPDX 070153Z 00000KT 7SM FEW012 OVC050 06/02 A3019 RMK AO2 SLP224 T00560022
Conditions at: KPDX (PORTLAND , OR, US) observed 0153 UTC 07 December 2022
Temperature: 5.6°C (42°F)
Dewpoint: 2.2°C (36°F) [RH = 79%]
Pressure (altimeter): 30.19 inches Hg (1022.4 mb)
[Sea-level pressure: 1022.4 mb]
Winds: calm
Visibility: 7 miles (11 km)
Ceiling: 5000 feet AGL
Clouds: few clouds at 1200 feet AGL
overcast cloud deck at 5000 feet AGL
Weather: no significant weather observed at this time

METAR text: KPDX 070053Z 00000KT 7SM FEW012 OVC049 06/02 A3018 RMK AO2 SLP221 T00560022
Conditions at: KPDX (PORTLAND , OR, US) observed 0053 UTC 07 December 2022
Temperature: 5.6°C (42°F)
Dewpoint: 2.2°C (36°F) [RH = 79%]
Pressure (altimeter): 30.18 inches Hg (1022.1 mb)
[Sea-level pressure: 1022.1 mb]
Winds: calm
Visibility: 7 miles (11 km)
Ceiling: 4900 feet AGL
Clouds: few clouds at 1200 feet AGL
overcast cloud deck at 4900 feet AGL
Weather: no significant weather observed at this time

METAR text: KPDX 062353Z 00000KT 7SM BKN045 OVC055 06/02 A3018 RMK AO2 SLP220 60000 T00610022 10061 20039 50000
Conditions at: KPDX (PORTLAND , OR, US) observed 2353 UTC 06 December 2022
Temperature: 6.1°C (43°F)
Dewpoint: 2.2°C (36°F) [RH = 76%]
Pressure (altimeter): 30.18 inches Hg (1022.1 mb)
[Sea-level pressure: 1022.0 mb]
Winds: calm
Visibility: 7 miles (11 km)
Ceiling: 4500 feet AGL
Clouds: broken clouds at 4500 feet AGL
overcast cloud deck at 5500 feet AGL
Weather: no significant weather observed at this time

METAR text: KPDX 062253Z 00000KT 7SM FEW012 BKN055 06/02 A3018 RMK AO2 SLP221 T00610022
Conditions at: KPDX (PORTLAND , OR, US) observed 2253 UTC 06 December 2022
Temperature: 6.1°C (43°F)
Dewpoint: 2.2°C (36°F) [RH = 76%]
Pressure (altimeter): 30.18 inches Hg (1022.1 mb)
[Sea-level pressure: 1022.1 mb]
Winds: calm
Visibility: 7 miles (11 km)
Ceiling: 5500 feet AGL
Clouds: few clouds at 1200 feet AGL
broken clouds at 5500 feet AGL
Weather: no significant weather observed at this time

METAR text: KPDX 062153Z 00000KT 7SM SCT011 OVC055 06/02 A3018 RMK AO2 DZB28E46 SLP221 P0000 T00560017
Conditions at: KPDX (PORTLAND , OR, US) observed 2153 UTC 06 December 2022
Temperature: 5.6°C (42°F)
Dewpoint: 1.7°C (35°F) [RH = 76%]
Pressure (altimeter): 30.18 inches Hg (1022.1 mb)
[Sea-level pressure: 1022.1 mb]
Winds: calm
Visibility: 7 miles (11 km)
Ceiling: 5500 feet AGL
Clouds: scattered clouds at 1100 feet AGL
overcast cloud deck at 5500 feet AGL
Weather: no significant weather observed at this time

METAR text: KPDX 062053Z 00000KT 7SM BKN011 OVC055 06/02 A3018 RMK AO2 SLP220 60000 T00560017 58001
Conditions at: KPDX (PORTLAND , OR, US) observed 2053 UTC 06 December 2022
Temperature: 5.6°C (42°F)
Dewpoint: 1.7°C (35°F) [RH = 76%]
Pressure (altimeter): 30.18 inches Hg (1022.1 mb)
[Sea-level pressure: 1022.0 mb]
Winds: calm
Visibility: 7 miles (11 km)
Ceiling: 1100 feet AGL
Clouds: broken clouds at 1100 feet AGL
overcast cloud deck at 5500 feet AGL
Weather: no significant weather observed at this time

METAR text: KPDX 061953Z 00000KT 6SM HZ BKN008 OVC055 05/02 A3019 RMK AO2 RAB00E06 SLP224 P0000 T00500017
Conditions at: KPDX (PORTLAND , OR, US) observed 1953 UTC 06 December 2022
Temperature: 5.0°C (41°F)
Dewpoint: 1.7°C (35°F) [RH = 79%]
Pressure (altimeter): 30.19 inches Hg (1022.4 mb)
[Sea-level pressure: 1022.4 mb]
Winds: calm
Visibility: 6 miles (10 km)
Ceiling: 800 feet AGL
Clouds: broken clouds at 800 feet AGL
overcast cloud deck at 5500 feet AGL
Weather: HZ  (haze)

METAR text: KPDX 061853Z 00000KT 6SM HZ BKN007 OVC055 04/02 A3020 RMK AO2 SLP225 T00440017
Conditions at: KPDX (PORTLAND , OR, US) observed 1853 UTC 06 December 2022
Temperature: 4.4°C (40°F)
Dewpoint: 1.7°C (35°F) [RH = 83%]
Pressure (altimeter): 30.20 inches Hg (1022.8 mb)
[Sea-level pressure: 1022.5 mb]
Winds: calm
Visibility: 6 miles (10 km)
Ceiling: 700 feet AGL
Clouds: broken clouds at 700 feet AGL
overcast cloud deck at 5500 feet AGL
Weather: HZ  (haze)

METAR text: KPDX 061753Z 00000KT 5SM BR OVC007 04/02 A3019 RMK AO2 SLP222 T00390017 10039 20022 53012
Conditions at: KPDX (PORTLAND , OR, US) observed 1753 UTC 06 December 2022
Temperature: 3.9°C (39°F)
Dewpoint: 1.7°C (35°F) [RH = 86%]
Pressure (altimeter): 30.19 inches Hg (1022.4 mb)
[Sea-level pressure: 1022.2 mb]
Winds: calm
Visibility: 5 miles ( 8 km)
Ceiling: 700 feet AGL
Clouds: overcast cloud deck at 700 feet AGL
Weather: BR  (mist)

METAR text: KPDX 061653Z 00000KT 5SM BR BKN007 BKN050 03/01 A3017 RMK AO2 SLP215 T00330011
Conditions at: KPDX (PORTLAND , OR, US) observed 1653 UTC 06 December 2022
Temperature: 3.3°C (38°F)
Dewpoint: 1.1°C (34°F) [RH = 85%]
Pressure (altimeter): 30.17 inches Hg (1021.8 mb)
[Sea-level pressure: 1021.5 mb]
Winds: calm
Visibility: 5 miles ( 8 km)
Ceiling: 700 feet AGL
Clouds: broken clouds at 700 feet AGL
broken clouds at 5000 feet AGL
Weather: BR  (mist)

METAR text: KPDX 061553Z 10003KT 5SM BR BKN007 BKN040 03/01 A3016 RMK AO2 SLP212 T00280006
Conditions at: KPDX (PORTLAND , OR, US) observed 1553 UTC 06 December 2022
Temperature: 2.8°C (37°F)
Dewpoint: 0.6°C (33°F) [RH = 85%]
Pressure (altimeter): 30.16 inches Hg (1021.4 mb)
[Sea-level pressure: 1021.2 mb]
Winds: from the E (100 degrees) at 3 MPH (3 knots; 1.5 m/s)
Visibility: 5 miles ( 8 km)
Ceiling: 700 feet AGL
Clouds: broken clouds at 700 feet AGL
broken clouds at 4000 feet AGL
Weather: BR  (mist)

METAR text: KPDX 061453Z 14004KT 9SM OVC006 03/01 A3015 RMK AO2 SLP210 T00280006 53009
Conditions at: KPDX (PORTLAND , OR, US) observed 1453 UTC 06 December 2022
Temperature: 2.8°C (37°F)
Dewpoint: 0.6°C (33°F) [RH = 85%]
Pressure (altimeter): 30.15 inches Hg (1021.1 mb)
[Sea-level pressure: 1021.0 mb]
Winds: from the SE (140 degrees) at 5 MPH (4 knots; 2.1 m/s)
Visibility: 9 miles (14 km)
Ceiling: 600 feet AGL
Clouds: overcast cloud deck at 600 feet AGL
Weather: no significant weather observed at this time

METAR text: KPDX 061353Z 11004KT 10SM OVC007 03/01 A3014 RMK AO2 SLP206 T00280006
Conditions at: KPDX (PORTLAND , OR, US) observed 1353 UTC 06 December 2022
Temperature: 2.8°C (37°F)
Dewpoint: 0.6°C (33°F) [RH = 85%]
Pressure (altimeter): 30.14 inches Hg (1020.7 mb)
[Sea-level pressure: 1020.6 mb]
Winds: from the ESE (110 degrees) at 5 MPH (4 knots; 2.1 m/s)
Visibility: 10 or more miles (16+ km)
Ceiling: 700 feet AGL
Clouds: overcast cloud deck at 700 feet AGL
Weather: no significant weather observed at this time

METAR text: KPDX 061253Z 11003KT 10SM OVC007 02/00 A3013 RMK AO2 SLP203 T00220000
Conditions at: KPDX (PORTLAND , OR, US) observed 1253 UTC 06 December 2022
Temperature: 2.2°C (36°F)
Dewpoint: 0.0°C (32°F) [RH = 85%]
Pressure (altimeter): 30.13 inches Hg (1020.4 mb)
[Sea-level pressure: 1020.3 mb]
Winds: from the ESE (110 degrees) at 3 MPH (3 knots; 1.5 m/s)
Visibility: 10 or more miles (16+ km)
Ceiling: 700 feet AGL
Clouds: overcast cloud deck at 700 feet AGL
Weather: no significant weather observed at this time

METAR text: KPDX 061153Z 11005KT 10SM OVC006 02/00 A3013 RMK AO2 DZE1058 SLP201 P0000 60000 T00220000 10028 20017 50004
Conditions at: KPDX (PORTLAND , OR, US) observed 1153 UTC 06 December 2022
Temperature: 2.2°C (36°F)
Dewpoint: 0.0°C (32°F) [RH = 85%]
Pressure (altimeter): 30.13 inches Hg (1020.4 mb)
[Sea-level pressure: 1020.1 mb]
Winds: from the ESE (110 degrees) at 6 MPH (5 knots; 2.6 m/s)
Visibility: 10 or more miles (16+ km)
Ceiling: 600 feet AGL
Clouds: overcast cloud deck at 600 feet AGL
Weather: no significant weather observed at this time

METAR text: KPDX 061053Z 11006KT 10SM -DZ OVC006 02/00 A3014 RMK AO2 SLP204 P0000 T00220000
Conditions at: KPDX (PORTLAND , OR, US) observed 1053 UTC 06 December 2022
Temperature: 2.2°C (36°F)
Dewpoint: 0.0°C (32°F) [RH = 85%]
Pressure (altimeter): 30.14 inches Hg (1020.7 mb)
[Sea-level pressure: 1020.4 mb]
Winds: from the ESE (110 degrees) at 7 MPH (6 knots; 3.1 m/s)
Visibility: 10 or more miles (16+ km)
Ceiling: 600 feet AGL
Clouds: overcast cloud deck at 600 feet AGL
Weather: -DZ  (light drizzle)

METAR text: KPDX 060953Z 11006KT 10SM -DZ BKN008 OVC048 02/M01 A3012 RMK AO2 DZB40 SLP200 P0000 T00221006
Conditions at: KPDX (PORTLAND , OR, US) observed 0953 UTC 06 December 2022
Temperature: 2.2°C (36°F)
Dewpoint: -0.6°C (31°F) [RH = 82%]
Pressure (altimeter): 30.12 inches Hg (1020.1 mb)
[Sea-level pressure: 1020.0 mb]
Winds: from the ESE (110 degrees) at 7 MPH (6 knots; 3.1 m/s)
Visibility: 10 or more miles (16+ km)
Ceiling: 800 feet AGL
Clouds: broken clouds at 800 feet AGL
overcast cloud deck at 4800 feet AGL
Weather: -DZ  (light drizzle)

METAR text: KPDX 060915Z 11007KT 10SM BKN009 OVC046 02/M01 A3012 RMK AO2 T00221011
Conditions at: KPDX (PORTLAND , OR, US) observed 0915 UTC 06 December 2022
Temperature: 2.2°C (36°F)
Dewpoint: -1.1°C (30°F) [RH = 79%]
Pressure (altimeter): 30.12 inches Hg (1020.1 mb)
Winds: from the ESE (110 degrees) at 8 MPH (7 knots; 3.6 m/s)
Visibility: 10 or more miles (16+ km)
Ceiling: 900 feet AGL
Clouds: broken clouds at 900 feet AGL
overcast cloud deck at 4600 feet AGL
Weather: no significant weather observed at this time

METAR text: KPDX 060853Z 13004KT 10SM SCT010 BKN046 OVC055 02/M01 A3011 RMK AO2 SLP197 T00221011 51006
Conditions at: KPDX (PORTLAND , OR, US) observed 0853 UTC 06 December 2022
Temperature: 2.2°C (36°F)
Dewpoint: -1.1°C (30°F) [RH = 79%]
Pressure (altimeter): 30.11 inches Hg (1019.7 mb)
[Sea-level pressure: 1019.7 mb]
Winds: from the SE (130 degrees) at 5 MPH (4 knots; 2.1 m/s)
Visibility: 10 or more miles (16+ km)
Ceiling: 4600 feet AGL
Clouds: scattered clouds at 1000 feet AGL
broken clouds at 4600 feet AGL
overcast cloud deck at 5500 feet AGL
Weather: no significant weather observed at this time

METAR text: KPDX 060753Z 12004KT 10SM FEW031 FEW038 OVC050 02/M01 A3011 RMK AO2 SLP196 T00221011 400671011
Conditions at: KPDX (PORTLAND , OR, US) observed 0753 UTC 06 December 2022
Temperature: 2.2°C (36°F)
Dewpoint: -1.1°C (30°F) [RH = 79%]
Pressure (altimeter): 30.11 inches Hg (1019.7 mb)
[Sea-level pressure: 1019.6 mb]
Winds: from the ESE (120 degrees) at 5 MPH (4 knots; 2.1 m/s)
Visibility: 10 or more miles (16+ km)
Ceiling: 5000 feet AGL
Clouds: few clouds at 3100 feet AGL
few clouds at 3800 feet AGL
overcast cloud deck at 5000 feet AGL
Weather: no significant weather observed at this time

METAR text: KPDX 060653Z 11008KT 10SM FEW030 BKN045 OVC055 02/M01 A3011 RMK AO2 SLP195 T00221011
Conditions at: KPDX (PORTLAND , OR, US) observed 0653 UTC 06 December 2022
Temperature: 2.2°C (36°F)
Dewpoint: -1.1°C (30°F) [RH = 79%]
Pressure (altimeter): 30.11 inches Hg (1019.7 mb)
[Sea-level pressure: 1019.5 mb]
Winds: from the ESE (110 degrees) at 9 MPH (8 knots; 4.1 m/s)
Visibility: 10 or more miles (16+ km)
Ceiling: 4500 feet AGL
Clouds: few clouds at 3000 feet AGL
broken clouds at 4500 feet AGL
overcast cloud deck at 5500 feet AGL
Weather: no significant weather observed at this time

METAR text: KPDX 060610Z 11006KT 10SM SCT025 OVC050 02/M01 A3010 RMK AO2 T00221011
Conditions at: KPDX (PORTLAND , OR, US) observed 0610 UTC 06 December 2022
Temperature: 2.2°C (36°F)
Dewpoint: -1.1°C (30°F) [RH = 79%]
Pressure (altimeter): 30.10 inches Hg (1019.4 mb)
Winds: from the ESE (110 degrees) at 7 MPH (6 knots; 3.1 m/s)
Visibility: 10 or more miles (16+ km)
Ceiling: 5000 feet AGL
Clouds: scattered clouds at 2500 feet AGL
overcast cloud deck at 5000 feet AGL
Weather: no significant weather observed at this time

METAR text: KPDX 060553Z 11005KT 10SM BKN025 OVC048 03/M01 A3010 RMK AO2 SLP191 T00281011 10050 20022 53013
Conditions at: KPDX (PORTLAND , OR, US) observed 0553 UTC 06 December 2022
Temperature: 2.8°C (37°F)
Dewpoint: -1.1°C (30°F) [RH = 75%]
Pressure (altimeter): 30.10 inches Hg (1019.4 mb)
[Sea-level pressure: 1019.1 mb]
Winds: from the ESE (110 degrees) at 6 MPH (5 knots; 2.6 m/s)
Visibility: 10 or more miles (16+ km)
Ceiling: 2500 feet AGL
Clouds: broken clouds at 2500 feet AGL
overcast cloud deck at 4800 feet AGL
Weather: no significant weather observed at this time

METAR text: KPDX 060510Z 12006KT 10SM BKN023 OVC048 03/M01 A3009 RMK AO2 T00281011
Conditions at: KPDX (PORTLAND , OR, US) observed 0510 UTC 06 December 2022
Temperature: 2.8°C (37°F)
Dewpoint: -1.1°C (30°F) [RH = 75%]
Pressure (altimeter): 30.09 inches Hg (1019.0 mb)
Winds: from the ESE (120 degrees) at 7 MPH (6 knots; 3.1 m/s)
Visibility: 10 or more miles (16+ km)
Ceiling: 2300 feet AGL
Clouds: broken clouds at 2300 feet AGL
overcast cloud deck at 4800 feet AGL
Weather: no significant weather observed at this time

METAR text: KPDX 060453Z 11006KT 10SM SCT021 OVC045 03/M02 A3008 RMK AO2 SLP187 T00281017
Conditions at: KPDX (PORTLAND , OR, US) observed 0453 UTC 06 December 2022
Temperature: 2.8°C (37°F)
Dewpoint: -1.7°C (29°F) [RH = 72%]
Pressure (altimeter): 30.08 inches Hg (1018.7 mb)
[Sea-level pressure: 1018.7 mb]
Winds: from the ESE (110 degrees) at 7 MPH (6 knots; 3.1 m/s)
Visibility: 10 or more miles (16+ km)
Ceiling: 4500 feet AGL
Clouds: scattered clouds at 2100 feet AGL
overcast cloud deck at 4500 feet AGL
Weather: no significant weather observed at this time

METAR text: KPDX 060353Z 12008KT 10SM FEW015 BKN041 OVC050 03/M01 A3007 RMK AO2 SLP182 T00281011
Conditions at: KPDX (PORTLAND , OR, US) observed 0353 UTC 06 December 2022
Temperature: 2.8°C (37°F)
Dewpoint: -1.1°C (30°F) [RH = 75%]
Pressure (altimeter): 30.07 inches Hg (1018.4 mb)
[Sea-level pressure: 1018.2 mb]
Winds: from the ESE (120 degrees) at 9 MPH (8 knots; 4.1 m/s)
Visibility: 10 or more miles (16+ km)
Ceiling: 4100 feet AGL
Clouds: few clouds at 1500 feet AGL
broken clouds at 4100 feet AGL
overcast cloud deck at 5000 feet AGL
Weather: no significant weather observed at this time

METAR text: KPDX 060253Z 13006KT 10SM FEW015 OVC040 03/M02 A3006 RMK AO2 SLP178 T00281017 51011
Conditions at: KPDX (PORTLAND , OR, US) observed 0253 UTC 06 December 2022
Temperature: 2.8°C (37°F)
Dewpoint: -1.7°C (29°F) [RH = 72%]
Pressure (altimeter): 30.06 inches Hg (1018.0 mb)
[Sea-level pressure: 1017.8 mb]
Winds: from the SE (130 degrees) at 7 MPH (6 knots; 3.1 m/s)
Visibility: 10 or more miles (16+ km)
Ceiling: 4000 feet AGL
Clouds: few clouds at 1500 feet AGL
overcast cloud deck at 4000 feet AGL
Weather: no significant weather observed at this time

METAR text: KPDX 060153Z 11006KT 10SM FEW015 OVC039 03/M01 A3005 RMK AO2 SLP175 T00281011
Conditions at: KPDX (PORTLAND , OR, US) observed 0153 UTC 06 December 2022
Temperature: 2.8°C (37°F)
Dewpoint: -1.1°C (30°F) [RH = 75%]
Pressure (altimeter): 30.05 inches Hg (1017.7 mb)
[Sea-level pressure: 1017.5 mb]
Winds: from the ESE (110 degrees) at 7 MPH (6 knots; 3.1 m/s)
Visibility: 10 or more miles (16+ km)
Ceiling: 3900 feet AGL
Clouds: few clouds at 1500 feet AGL
overcast cloud deck at 3900 feet AGL
Weather: no significant weather observed at this time

METAR text: KPDX 060053Z 11008KT 10SM FEW015 FEW040 03/M01 A3004 RMK AO2 SLP171 T00331011
Conditions at: KPDX (PORTLAND , OR, US) observed 0053 UTC 06 December 2022
Temperature: 3.3°C (38°F)
Dewpoint: -1.1°C (30°F) [RH = 73%]
Pressure (altimeter): 30.04 inches Hg (1017.4 mb)
[Sea-level pressure: 1017.1 mb]
Winds: from the ESE (110 degrees) at 9 MPH (8 knots; 4.1 m/s)
Visibility: 10 or more miles (16+ km)
Ceiling: at least 12,000 feet AGL
Clouds: few clouds at 1500 feet AGL
few clouds at 4000 feet AGL
Weather: no significant weather observed at this time

METAR text: KPDX 052353Z 11006KT 10SM FEW015 05/M01 A3003 RMK AO2 SLP167 T00501006 10067 20028 53003
Conditions at: KPDX (PORTLAND , OR, US) observed 2353 UTC 05 December 2022
Temperature: 5.0°C (41°F)
Dewpoint: -0.6°C (31°F) [RH = 67%]
Pressure (altimeter): 30.03 inches Hg (1017.0 mb)
[Sea-level pressure: 1016.7 mb]
Winds: from the ESE (110 degrees) at 7 MPH (6 knots; 3.1 m/s)
Visibility: 10 or more miles (16+ km)
Ceiling: at least 12,000 feet AGL
Clouds: few clouds at 1500 feet AGL
Weather: no significant weather observed at this time

METAR text: KPDX 052253Z 07004KT 10SM FEW014 06/01 A3001 RMK AO2 SLP163 T00610006
Conditions at: KPDX (PORTLAND , OR, US) observed 2253 UTC 05 December 2022
Temperature: 6.1°C (43°F)
Dewpoint: 0.6°C (33°F) [RH = 68%]
Pressure (altimeter): 30.01 inches Hg (1016.3 mb)
[Sea-level pressure: 1016.3 mb]
Winds: from the ENE (70 degrees) at 5 MPH (4 knots; 2.1 m/s)
Visibility: 10 or more miles (16+ km)
Ceiling: at least 12,000 feet AGL
Clouds: few clouds at 1400 feet AGL
Weather: no significant weather observed at this time

Forecast for: KPDX (PORTLAND , OR, US)
Text: KPDX 070849Z 0709/0806 VRB03KT 5SM BR OVC045
Forecast period: 0900 to 1100 UTC 07 December 2022
Forecast type: FROM: standard forecast or significant change
Winds: variable direction winds at 3 MPH (3 knots; 1.5 m/s)
Visibility: 5 miles (8 km)
Ceiling: 4500 feet AGL
Clouds: overcast cloud deck at 4500 feet AGL
Weather: BR  (mist)
Text: FM071100 00000KT 3SM BR BKN007 BKN015
Forecast period: 1100 to 2000 UTC 07 December 2022
Forecast type: FROM: standard forecast or significant change
Winds: calm
Visibility: 3 miles (5 km)
Ceiling: 700 feet AGL
Clouds: broken clouds at 700 feet AGL
broken clouds at 1500 feet AGL
Weather: BR  (mist)
Text: FM072000 13004KT P6SM BKN015 OVC050
Forecast period: 2000 UTC 07 December 2022 to 0100 UTC 08 December 2022
Forecast type: FROM: standard forecast or significant change
Winds: from the SE (130 degrees) at 5 MPH (4 knots; 2.1 m/s)
Visibility: 6 or more miles (10+ km)
Ceiling: 1500 feet AGL
Clouds: broken clouds at 1500 feet AGL
overcast cloud deck at 5000 feet AGL
Weather: no significant weather forecast for this period
Text: FM080100 13006KT P6SM SCT015 OVC050
Forecast period: 0100 to 0600 UTC 08 December 2022
Forecast type: FROM: standard forecast or significant change
Winds: from the SE (130 degrees) at 7 MPH (6 knots; 3.1 m/s)
Visibility: 6 or more miles (10+ km)
Ceiling: 5000 feet AGL
Clouds: scattered clouds at 1500 feet AGL
overcast cloud deck at 5000 feet AGL
Weather: no significant weather forecast for this period